createdAt,value
2023-01-18T00:00:31.977Z,24.29
2023-01-18T00:01:31.970Z,24.33
2023-01-18T00:02:31.900Z,24.33
2023-01-18T00:03:31.942Z,24.29
2023-01-18T00:04:31.883Z,24.29
2023-01-18T00:05:31.880Z,24.32
2023-01-18T00:06:31.886Z,24.32
2023-01-18T00:07:31.849Z,24.32
2023-01-18T00:08:31.903Z,24.30
2023-01-18T00:55:32.333Z,24.22
2023-01-18T00:56:33.208Z,24.18
2023-01-18T00:57:33.198Z,24.24
2023-01-18T00:58:33.195Z,24.17
2023-01-18T00:59:33.183Z,24.18
2023-01-18T01:00:33.287Z,24.15
2023-01-18T01:01:33.279Z,24.19
2023-01-18T01:02:33.246Z,24.15
2023-01-18T01:03:33.146Z,24.21
2023-01-18T01:04:33.142Z,24.18
2023-01-18T01:05:33.133Z,24.15
2023-01-18T01:06:33.152Z,24.17
2023-01-18T01:07:33.129Z,24.21
2023-01-18T01:08:33.143Z,24.22
2023-01-18T01:09:33.096Z,24.21
2023-01-18T01:10:33.091Z,24.15
2023-01-18T01:11:33.177Z,24.21
2023-01-18T01:12:33.069Z,24.19
2023-01-18T01:13:33.074Z,24.15
2023-01-18T01:14:33.054Z,24.21
2023-01-18T01:15:33.112Z,24.17
2023-01-18T01:16:33.100Z,24.15
2023-01-18T01:17:33.030Z,24.18
2023-01-18T01:18:33.018Z,24.14
2023-01-18T01:19:33.008Z,24.13
2023-01-18T01:20:33.014Z,24.10
2023-01-18T01:21:32.992Z,24.18
2023-01-18T01:22:32.987Z,24.18
2023-01-18T01:23:32.981Z,24.18
2023-01-18T01:24:32.963Z,24.14
2023-01-18T01:25:32.952Z,24.13
2023-01-18T01:26:32.945Z,24.18
2023-01-18T01:27:32.975Z,24.14
2023-01-18T01:28:32.941Z,24.15
2023-01-18T01:29:32.923Z,24.17
2023-01-18T01:30:32.927Z,24.18
2023-01-18T01:31:32.905Z,24.14
2023-01-18T01:32:32.891Z,24.15
2023-01-18T01:33:32.883Z,24.14
2023-01-18T01:34:32.908Z,24.14
2023-01-18T01:35:32.865Z,24.15
2023-01-18T01:36:32.867Z,24.11
2023-01-18T01:37:32.850Z,24.19
2023-01-18T01:38:32.847Z,24.10
2023-01-18T01:39:32.831Z,24.17
2023-01-18T01:40:32.823Z,24.15
2023-01-18T01:41:32.844Z,24.10
2023-01-18T01:42:32.801Z,24.14
2023-01-18T01:43:32.827Z,24.11
2023-01-18T01:44:32.790Z,24.13
2023-01-18T01:45:32.807Z,24.15
2023-01-18T01:46:32.766Z,24.13
2023-01-18T01:47:32.760Z,24.11
2023-01-18T01:48:32.759Z,24.10
2023-01-18T01:49:32.755Z,24.04
2023-01-18T01:50:32.740Z,24.09
2023-01-18T01:51:32.725Z,24.11
2023-01-18T01:52:32.748Z,24.11
2023-01-18T01:53:32.708Z,24.09
2023-01-18T01:54:32.741Z,24.09
2023-01-18T01:55:32.692Z,24.10
2023-01-18T01:56:32.676Z,24.14
2023-01-18T01:57:32.673Z,24.09
2023-01-18T01:58:32.661Z,24.07
2023-01-18T01:59:32.683Z,24.17
2023-01-18T02:00:32.653Z,24.10
2023-01-18T02:01:32.771Z,24.11
2023-01-18T02:02:32.783Z,24.14
2023-01-18T02:03:32.623Z,24.10
2023-01-18T02:04:32.621Z,24.10
2023-01-18T02:05:32.598Z,24.04
2023-01-18T02:06:32.598Z,24.10
2023-01-18T02:07:32.590Z,24.09
2023-01-18T02:08:32.579Z,24.07
2023-01-18T02:09:32.562Z,24.14
2023-01-18T02:10:32.557Z,24.10
2023-01-18T02:11:32.547Z,24.14
2023-01-18T02:12:32.547Z,24.11
2023-01-18T02:13:32.528Z,24.09
2023-01-18T02:14:32.525Z,24.07
2023-01-18T02:15:32.535Z,24.13
2023-01-18T02:16:32.512Z,24.07
2023-01-18T02:17:32.564Z,24.11
2023-01-18T02:18:32.517Z,24.11
2023-01-18T02:19:32.479Z,24.18
2023-01-18T02:20:32.473Z,24.11
2023-01-18T02:21:32.461Z,24.11
2023-01-18T02:22:32.484Z,24.11
2023-01-18T02:23:32.447Z,24.11
2023-01-18T02:24:32.444Z,24.11
2023-01-18T02:25:32.426Z,24.09
2023-01-18T02:26:32.410Z,24.08
2023-01-18T02:27:32.404Z,24.09
2023-01-18T02:28:32.404Z,24.07
2023-01-18T02:29:32.388Z,24.13
2023-01-18T02:30:32.404Z,24.08
2023-01-18T02:31:32.393Z,24.09
2023-01-18T02:32:32.359Z,24.10
2023-01-18T02:33:32.354Z,24.02
2023-01-18T02:34:32.347Z,24.08
2023-01-18T02:35:32.336Z,24.06
2023-01-18T02:36:32.337Z,24.07
2023-01-18T02:37:32.332Z,24.07
2023-01-18T02:38:32.305Z,24.06
2023-01-18T02:39:32.337Z,24.09
2023-01-18T02:40:32.301Z,24.02
2023-01-18T02:41:32.298Z,24.06
2023-01-18T02:42:32.270Z,24.07
2023-01-18T02:43:32.264Z,24.11
2023-01-18T02:44:32.253Z,24.07
2023-01-18T02:45:34.938Z,24.14
2023-01-18T02:46:32.240Z,24.04
2023-01-18T02:47:32.268Z,24.11
2023-01-18T02:48:32.219Z,24.06
2023-01-18T02:49:32.235Z,24.07
2023-01-18T02:50:32.216Z,24.00
2023-01-18T02:51:32.187Z,24.06
2023-01-18T02:52:32.182Z,24.04
2023-01-18T02:53:32.169Z,24.02
2023-01-18T02:54:32.169Z,24.03
2023-01-18T02:55:32.167Z,24.02
2023-01-18T02:56:32.164Z,24.03
2023-01-18T02:57:32.165Z,24.07
2023-01-18T02:58:32.134Z,24.04
2023-01-18T02:59:32.142Z,24.04
2023-01-18T03:00:32.118Z,24.06
2023-01-18T03:01:32.194Z,24.07
2023-01-18T03:02:32.129Z,24.09
2023-01-18T03:03:32.113Z,24.07
2023-01-18T03:04:32.072Z,24.04
2023-01-18T03:05:32.068Z,24.02
2023-01-18T03:06:32.054Z,24.02
2023-01-18T03:07:32.049Z,24.02
2023-01-18T03:08:32.035Z,24.06
2023-01-18T03:09:32.032Z,24.04
2023-01-18T03:10:32.029Z,24.03
2023-01-18T03:11:32.025Z,24.06
2023-01-18T03:12:32.014Z,24.10
2023-01-18T03:13:31.993Z,24.10
2023-01-18T03:14:32.015Z,24.04
2023-01-18T03:15:32.003Z,24.02
2023-01-18T03:16:31.968Z,24.03
2023-01-18T03:17:31.966Z,24.06
2023-01-18T03:18:31.957Z,24.06
2023-01-18T03:19:31.987Z,24.03
2023-01-18T03:20:31.930Z,23.99
2023-01-18T03:21:31.926Z,24.02
2023-01-18T03:22:31.920Z,24.03
2023-01-18T03:23:31.940Z,24.03
2023-01-18T03:24:31.923Z,24.06
2023-01-18T03:25:31.908Z,24.07
2023-01-18T03:26:31.940Z,24.06
2023-01-18T03:27:31.875Z,24.03
2023-01-18T03:28:31.864Z,23.99
2023-01-18T03:29:31.884Z,24.04
2023-01-18T03:30:31.849Z,24.03
2023-01-18T03:31:31.841Z,24.03
2023-01-18T03:32:31.827Z,24.00
2023-01-18T03:33:31.822Z,24.02
2023-01-18T03:34:31.817Z,24.06
2023-01-18T03:35:31.827Z,24.04
2023-01-18T03:36:31.809Z,24.02
2023-01-18T03:37:31.796Z,23.99
2023-01-18T03:38:31.775Z,24.03
2023-01-18T03:39:31.767Z,24.00
2023-01-18T03:41:31.762Z,24.02
2023-01-18T03:43:31.726Z,24.00
2023-01-18T03:44:31.717Z,24.06
2023-01-18T03:46:31.746Z,24.03
2023-01-18T03:47:31.694Z,24.06
2023-01-18T03:48:31.683Z,23.96
2023-01-18T03:50:31.669Z,24.06
2023-01-18T03:51:31.686Z,24.03
2023-01-18T03:53:31.638Z,24.06
2023-01-18T03:57:31.602Z,24.04
2023-01-18T04:03:31.549Z,24.01
2023-01-18T04:09:31.495Z,24.00
2023-01-18T04:47:31.166Z,24.08
2023-01-18T06:01:30.591Z,24.01
2023-01-18T06:24:30.290Z,24.04
2023-01-18T06:30:30.231Z,24.23
2023-01-18T06:35:30.189Z,24.46
2023-01-18T06:43:30.163Z,24.82
2023-01-18T06:51:30.051Z,25.10
2023-01-18T07:09:30.923Z,25.55
2023-01-18T07:38:29.685Z,25.30
2023-01-18T07:42:30.007Z,25.30
2023-01-18T07:45:29.677Z,25.24
2023-01-18T07:49:29.530Z,25.25
2023-01-18T07:50:29.676Z,25.19
2023-01-18T07:51:29.627Z,25.16
2023-01-18T07:52:29.815Z,25.19
2023-01-18T07:53:29.542Z,25.22
2023-01-18T07:54:29.511Z,25.22
2023-01-18T07:55:29.754Z,25.21
2023-01-18T07:56:29.906Z,25.17
2023-01-18T07:57:29.715Z,25.21
2023-01-18T07:58:29.491Z,25.11
2023-01-18T07:59:29.472Z,25.15
2023-01-18T08:00:29.718Z,25.14
2023-01-18T08:01:29.532Z,25.18
2023-01-18T08:02:30.935Z,25.13
2023-01-18T08:03:29.510Z,25.14
2023-01-18T08:04:30.604Z,25.12
2023-01-18T08:05:30.155Z,25.11
2023-01-18T08:07:30.441Z,25.08
2023-01-18T08:08:29.533Z,25.11
2023-01-18T08:09:29.469Z,25.12
2023-01-18T08:10:30.450Z,25.12
2023-01-18T08:11:29.724Z,25.11
2023-01-18T08:12:29.409Z,25.15
2023-01-18T08:13:29.402Z,25.14
2023-01-18T08:14:29.719Z,25.15
2023-01-18T08:15:29.445Z,25.12
2023-01-18T08:16:30.362Z,25.11
2023-01-18T08:17:29.376Z,25.15
2023-01-18T08:18:29.430Z,25.16
2023-01-18T08:19:29.720Z,25.16
2023-01-18T08:20:29.347Z,25.15
2023-01-18T08:21:29.723Z,25.15
2023-01-18T08:22:29.341Z,25.14
2023-01-18T08:23:29.340Z,25.15
2023-01-18T08:24:30.472Z,25.15
2023-01-18T08:25:29.260Z,25.18
2023-01-18T08:26:29.728Z,25.19
2023-01-18T08:27:29.260Z,25.15
2023-01-18T08:28:29.254Z,25.15
2023-01-18T08:29:29.269Z,25.11
2023-01-18T08:30:29.250Z,25.14
2023-01-18T08:32:29.203Z,25.03
2023-01-18T08:33:30.246Z,25.00
2023-01-18T08:35:29.228Z,25.11
2023-01-18T08:36:29.228Z,25.36
2023-01-18T08:37:29.226Z,25.23
2023-01-18T08:38:29.182Z,25.25
2023-01-18T08:39:29.186Z,25.57
2023-01-18T08:40:29.167Z,25.87
2023-01-18T08:41:29.418Z,26.00
2023-01-18T08:42:29.147Z,26.14
2023-01-18T08:43:29.128Z,26.23
2023-01-18T08:44:30.294Z,26.57
2023-01-18T08:45:29.109Z,26.38
2023-01-18T08:46:29.261Z,25.84
2023-01-18T08:47:29.072Z,25.90
2023-01-18T08:48:29.106Z,26.19
2023-01-18T08:49:29.092Z,26.19
2023-01-18T08:50:29.046Z,25.97
2023-01-18T08:51:29.199Z,26.24
2023-01-18T08:52:29.018Z,26.29
2023-01-18T08:53:29.045Z,26.24
2023-01-18T08:54:29.087Z,26.42
2023-01-18T08:55:29.025Z,26.41
2023-01-18T08:56:28.992Z,26.43
2023-01-18T08:57:29.237Z,23.85
2023-01-18T08:58:29.004Z,23.69
2023-01-18T08:59:29.022Z,23.97
2023-01-18T09:00:28.979Z,24.38
2023-01-18T09:01:44.874Z,24.68
2023-01-18T09:02:29.302Z,25.01
2023-01-18T09:03:29.242Z,25.66
2023-01-18T09:04:29.736Z,25.89
2023-01-18T09:05:28.949Z,26.34
2023-01-18T09:06:28.930Z,26.56
2023-01-18T09:07:29.911Z,26.92
2023-01-18T09:08:29.219Z,27.27
2023-01-18T09:09:28.902Z,27.42
2023-01-18T09:10:29.951Z,28.12
2023-01-18T09:11:28.893Z,27.97
2023-01-18T09:12:29.256Z,27.87
2023-01-18T09:13:28.847Z,28.06
2023-01-18T09:14:29.370Z,28.23
2023-01-18T09:15:28.855Z,28.60
2023-01-18T09:16:29.494Z,28.36
2023-01-18T09:17:29.820Z,28.58
2023-01-18T09:18:28.885Z,28.79
2023-01-18T09:19:29.379Z,28.94
2023-01-18T09:20:28.803Z,28.89
2023-01-18T09:21:28.962Z,29.04
2023-01-18T09:22:30.240Z,29.30
2023-01-18T09:23:28.845Z,29.40
2023-01-18T09:24:28.906Z,30.09
2023-01-18T09:25:28.837Z,31.98
2023-01-18T09:26:28.859Z,32.24
2023-01-18T09:27:29.251Z,32.24
2023-01-18T09:28:28.807Z,32.23
2023-01-18T09:29:28.770Z,32.01
2023-01-18T09:30:28.779Z,31.74
2023-01-18T09:31:28.942Z,31.60
2023-01-18T09:32:29.251Z,31.57
2023-01-18T09:33:36.879Z,31.33
2023-01-18T09:34:28.755Z,31.17
2023-01-18T09:35:28.751Z,31.04
2023-01-18T09:36:28.742Z,30.82
2023-01-18T09:37:29.243Z,30.73
2023-01-18T09:38:28.709Z,30.53
2023-01-18T09:39:28.702Z,30.43
2023-01-18T09:40:28.756Z,30.38
2023-01-18T09:41:28.674Z,27.20
2023-01-18T09:42:28.887Z,26.22
2023-01-18T09:43:28.652Z,26.29
2023-01-18T09:44:28.638Z,26.84
2023-01-18T09:45:28.622Z,27.99
2023-01-18T09:46:28.680Z,28.32
2023-01-18T09:47:28.873Z,28.42
2023-01-18T09:48:28.631Z,28.52
2023-01-18T09:49:28.621Z,28.52
2023-01-18T09:50:28.619Z,28.53
2023-01-18T09:51:28.599Z,28.51
2023-01-18T09:52:28.749Z,28.38
2023-01-18T09:53:28.611Z,28.36
2023-01-18T09:54:28.569Z,28.15
2023-01-18T09:55:28.591Z,28.08
2023-01-18T09:56:28.560Z,27.94
2023-01-18T09:57:28.558Z,27.88
2023-01-18T09:58:28.559Z,27.78
2023-01-18T09:59:28.752Z,27.69
2023-01-18T10:00:28.777Z,27.68
2023-01-18T10:01:28.578Z,27.60
2023-01-18T10:03:28.500Z,27.49
2023-01-18T10:04:28.875Z,27.69
2023-01-18T10:05:28.483Z,27.81
2023-01-18T10:06:28.498Z,27.88
2023-01-18T10:07:28.767Z,27.93
2023-01-18T10:08:28.449Z,27.98
2023-01-18T10:09:28.441Z,28.05
2023-01-18T10:10:28.441Z,28.12
2023-01-18T10:11:28.424Z,28.12
2023-01-18T10:12:28.385Z,28.23
2023-01-18T10:13:28.757Z,28.23
2023-01-18T10:14:28.420Z,28.31
2023-01-18T10:15:28.921Z,28.40
2023-01-18T10:16:28.444Z,28.52
2023-01-18T10:17:28.828Z,28.57
2023-01-18T10:18:28.735Z,28.55
2023-01-18T10:19:28.364Z,28.65
2023-01-18T10:20:28.767Z,28.67
2023-01-18T10:21:28.338Z,28.79
2023-01-18T10:22:28.317Z,28.71
2023-01-18T10:23:28.281Z,28.79
2023-01-18T10:24:28.276Z,28.88
2023-01-18T10:25:28.732Z,28.94
2023-01-18T10:26:28.265Z,29.02
2023-01-18T10:27:28.263Z,28.99
2023-01-18T10:28:28.731Z,29.08
2023-01-18T10:29:28.232Z,28.58
2023-01-18T10:30:28.251Z,24.81
2023-01-18T10:31:28.305Z,24.36
2023-01-18T10:32:28.234Z,24.49
2023-01-18T10:33:28.246Z,25.34
2023-01-18T10:34:28.191Z,25.35
2023-01-18T10:35:28.189Z,25.23
2023-01-18T10:36:28.233Z,25.17
2023-01-18T10:37:28.161Z,25.54
2023-01-18T10:38:28.153Z,26.57
2023-01-18T10:39:28.198Z,25.99
2023-01-18T10:40:28.237Z,26.47
2023-01-18T10:41:28.132Z,27.28
2023-01-18T10:42:28.120Z,27.63
2023-01-18T10:43:28.103Z,29.43
2023-01-18T10:44:28.096Z,30.20
2023-01-18T10:45:28.281Z,30.58
2023-01-18T10:46:28.099Z,30.75
2023-01-18T10:47:28.079Z,30.88
2023-01-18T10:48:28.079Z,30.89
2023-01-18T10:49:28.053Z,30.86
2023-01-18T10:50:28.044Z,30.86
2023-01-18T10:51:28.072Z,30.88
2023-01-18T10:52:28.025Z,30.85
2023-01-18T10:53:28.022Z,30.84
2023-01-18T10:54:28.331Z,30.77
2023-01-18T10:55:27.996Z,30.68
2023-01-18T10:56:27.996Z,30.68
2023-01-18T10:57:27.982Z,30.72
2023-01-18T10:58:28.239Z,30.58
2023-01-18T10:59:28.019Z,30.67
2023-01-18T11:00:27.953Z,30.49
2023-01-18T11:01:27.992Z,30.41
2023-01-18T11:02:28.110Z,30.39
2023-01-18T11:03:28.246Z,30.47
2023-01-18T11:04:27.971Z,30.50
2023-01-18T11:05:27.914Z,30.50
2023-01-18T11:06:27.900Z,30.49
2023-01-18T11:07:27.890Z,30.48
2023-01-18T11:08:28.484Z,30.49
2023-01-18T11:09:27.877Z,30.57
2023-01-18T11:10:27.867Z,30.52
2023-01-18T11:11:28.745Z,30.47
2023-01-18T11:12:28.242Z,30.47
2023-01-18T11:13:27.864Z,30.52
2023-01-18T11:14:28.257Z,30.55
2023-01-18T11:15:27.820Z,30.57
2023-01-18T11:16:27.816Z,30.56
2023-01-18T11:17:27.817Z,30.64
2023-01-18T11:18:27.826Z,30.66
2023-01-18T11:19:28.277Z,30.65
2023-01-18T11:20:27.770Z,30.75
2023-01-18T11:21:27.761Z,30.85
2023-01-18T11:22:27.756Z,30.88
2023-01-18T11:23:27.751Z,30.85
2023-01-18T11:24:27.748Z,30.93
2023-01-18T11:25:27.752Z,31.02
2023-01-18T11:26:27.867Z,31.07
2023-01-18T11:27:27.712Z,31.11
2023-01-18T11:28:27.732Z,31.19
2023-01-18T11:29:28.792Z,31.23
2023-01-18T11:30:27.696Z,31.29
2023-01-18T11:31:27.724Z,31.28
2023-01-18T11:32:27.672Z,31.34
2023-01-18T11:33:27.754Z,31.36
2023-01-18T11:34:27.678Z,31.41
2023-01-18T11:35:27.641Z,31.37
2023-01-18T11:36:27.627Z,31.41
2023-01-18T11:37:27.625Z,31.52
2023-01-18T11:38:27.756Z,31.62
2023-01-18T11:39:27.632Z,31.67
2023-01-18T11:40:27.602Z,31.57
2023-01-18T11:41:27.593Z,26.56
2023-01-18T11:42:27.572Z,26.07
2023-01-18T11:43:27.756Z,26.40
2023-01-18T11:44:27.564Z,26.63
2023-01-18T11:45:27.811Z,26.75
2023-01-18T11:46:27.594Z,26.54
2023-01-18T11:47:27.558Z,27.09
2023-01-18T11:48:27.530Z,26.83
2023-01-18T11:49:27.527Z,27.49
2023-01-18T11:50:27.780Z,27.69
2023-01-18T11:51:27.538Z,27.26
2023-01-18T11:52:27.759Z,27.49
2023-01-18T11:53:27.475Z,28.09
2023-01-18T11:54:27.470Z,27.75
2023-01-18T11:55:27.464Z,27.66
2023-01-18T11:56:27.452Z,27.84
2023-01-18T11:57:27.442Z,27.71
2023-01-18T11:58:27.425Z,28.09
2023-01-18T11:59:27.424Z,28.13
2023-01-18T12:00:27.755Z,28.26
2023-01-18T12:01:27.420Z,28.43
2023-01-18T12:02:27.427Z,28.49
2023-01-18T12:03:27.820Z,28.59
2023-01-18T12:04:27.376Z,28.83
2023-01-18T12:05:27.366Z,28.72
2023-01-18T12:06:27.787Z,28.78
2023-01-18T12:07:27.779Z,28.93
2023-01-18T12:08:27.349Z,30.37
2023-01-18T12:09:27.334Z,31.31
2023-01-18T12:10:27.757Z,31.10
2023-01-18T12:11:27.313Z,31.44
2023-01-18T12:12:27.307Z,31.68
2023-01-18T12:13:27.774Z,31.64
2023-01-18T12:14:27.415Z,31.50
2023-01-18T12:15:27.761Z,31.36
2023-01-18T12:16:27.330Z,31.27
2023-01-18T12:17:27.259Z,31.10
2023-01-18T12:18:27.253Z,30.95
2023-01-18T12:19:27.235Z,30.80
2023-01-18T12:20:27.265Z,30.65
2023-01-18T12:21:27.226Z,30.60
2023-01-18T12:22:27.242Z,30.45
2023-01-18T12:23:27.204Z,30.43
2023-01-18T12:24:27.204Z,30.27
2023-01-18T12:25:27.187Z,30.14
2023-01-18T12:26:27.175Z,30.03
2023-01-18T12:27:28.170Z,29.94
2023-01-18T12:28:27.156Z,29.87
2023-01-18T12:29:27.158Z,29.81
2023-01-18T12:30:27.180Z,29.73
2023-01-18T12:31:27.140Z,29.64
2023-01-18T12:32:27.123Z,29.56
2023-01-18T12:33:42.560Z,29.52
2023-01-18T12:34:27.109Z,29.48
2023-01-18T12:35:27.287Z,29.46
2023-01-18T12:36:27.090Z,29.41
2023-01-18T12:37:27.079Z,29.35
2023-01-18T12:38:27.424Z,29.26
2023-01-18T12:39:27.068Z,29.28
2023-01-18T12:40:27.062Z,29.24
2023-01-18T12:41:27.172Z,29.25
2023-01-18T12:42:27.030Z,29.18
2023-01-18T12:43:27.889Z,29.15
2023-01-18T12:44:27.013Z,29.12
2023-01-18T12:45:27.272Z,29.10
2023-01-18T12:46:27.060Z,29.11
2023-01-18T12:47:26.993Z,29.06
2023-01-18T12:48:27.278Z,29.06
2023-01-18T12:49:26.975Z,29.01
2023-01-18T12:50:26.965Z,29.05
2023-01-18T12:51:26.960Z,23.82
2023-01-18T12:52:26.946Z,24.08
2023-01-18T12:53:27.274Z,24.09
2023-01-18T12:54:26.959Z,24.31
2023-01-18T12:55:26.965Z,24.32
2023-01-18T12:56:27.275Z,24.82
2023-01-18T12:57:26.911Z,25.01
2023-01-18T12:58:27.279Z,25.42
2023-01-18T12:59:26.879Z,25.85
2023-01-18T13:00:26.892Z,26.59
2023-01-18T13:01:26.989Z,27.48
2023-01-18T13:02:27.323Z,28.72
2023-01-18T13:03:26.845Z,29.21
2023-01-18T13:04:26.838Z,29.54
2023-01-18T13:05:26.829Z,29.88
2023-01-18T13:06:26.818Z,27.26
2023-01-18T13:07:27.276Z,26.14
2023-01-18T13:08:26.806Z,25.36
2023-01-18T13:09:26.800Z,25.16
2023-01-18T13:10:26.835Z,25.80
2023-01-18T13:11:26.770Z,25.61
2023-01-18T13:12:26.785Z,25.60
2023-01-18T13:13:26.754Z,25.93
2023-01-18T13:14:26.745Z,26.05
2023-01-18T13:15:26.841Z,26.27
2023-01-18T13:16:26.728Z,26.80
2023-01-18T13:17:26.785Z,27.26
2023-01-18T13:18:26.723Z,27.31
2023-01-18T13:19:26.699Z,27.32
2023-01-18T13:20:26.695Z,27.58
2023-01-18T13:21:26.685Z,27.75
2023-01-18T13:22:26.783Z,28.17
2023-01-18T13:23:26.717Z,28.51
2023-01-18T13:24:26.663Z,29.41
2023-01-18T13:25:26.664Z,31.03
2023-01-18T13:26:26.680Z,31.48
2023-01-18T13:27:26.633Z,31.32
2023-01-18T13:28:26.790Z,31.95
2023-01-18T13:29:26.616Z,31.80
2023-01-18T13:30:26.605Z,31.88
2023-01-18T13:31:26.692Z,31.74
2023-01-18T13:32:26.580Z,31.73
2023-01-18T13:33:26.784Z,31.71
2023-01-18T13:34:26.569Z,31.60
2023-01-18T13:35:26.561Z,31.58
2023-01-18T13:36:26.551Z,31.46
2023-01-18T13:37:26.540Z,31.41
2023-01-18T13:38:40.224Z,31.36
2023-01-18T13:39:26.524Z,31.33
2023-01-18T13:40:26.516Z,31.32
2023-01-18T13:41:26.515Z,31.30
2023-01-18T13:42:26.520Z,31.23
2023-01-18T13:43:26.798Z,31.22
2023-01-18T13:44:26.487Z,31.18
2023-01-18T13:45:26.487Z,31.17
2023-01-18T13:46:26.583Z,31.21
2023-01-18T13:47:26.456Z,31.19
2023-01-18T13:48:26.459Z,31.14
2023-01-18T13:49:36.589Z,31.20
2023-01-18T13:50:26.459Z,31.16
2023-01-18T13:51:26.451Z,31.25
2023-01-18T13:52:27.314Z,31.34
2023-01-18T13:53:26.467Z,31.30
2023-01-18T13:54:26.391Z,31.35
2023-01-18T13:55:26.413Z,31.44
2023-01-18T13:56:26.806Z,31.15
2023-01-18T13:57:26.364Z,29.93
2023-01-18T13:58:26.419Z,30.07
2023-01-18T13:59:26.353Z,30.06
2023-01-18T14:00:26.388Z,30.44
2023-01-18T14:01:26.971Z,30.64
2023-01-18T14:02:26.336Z,30.62
2023-01-18T14:03:26.380Z,30.56
2023-01-18T14:04:26.303Z,30.46
2023-01-18T14:05:26.298Z,30.32
2023-01-18T14:06:26.306Z,30.25
2023-01-18T14:07:26.281Z,30.15
2023-01-18T14:08:26.277Z,30.04
2023-01-18T14:09:26.271Z,29.88
2023-01-18T14:10:26.283Z,29.87
2023-01-18T14:11:26.242Z,29.74
2023-01-18T14:12:26.243Z,29.74
2023-01-18T14:13:26.222Z,29.67
2023-01-18T14:14:26.256Z,29.58
2023-01-18T14:15:26.213Z,29.57
2023-01-18T14:16:26.346Z,29.49
2023-01-18T14:17:26.230Z,29.41
2023-01-18T14:18:26.182Z,29.38
2023-01-18T14:19:26.176Z,29.29
2023-01-18T14:20:26.160Z,29.27
2023-01-18T14:21:26.299Z,29.24
2023-01-18T14:22:26.159Z,29.21
2023-01-18T14:23:26.143Z,29.13
2023-01-18T14:24:26.133Z,29.09
2023-01-18T14:25:26.125Z,29.05
2023-01-18T14:26:26.107Z,28.97
2023-01-18T14:27:26.103Z,28.93
2023-01-18T14:28:26.715Z,28.94
2023-01-18T14:29:26.087Z,28.90
2023-01-18T14:30:26.153Z,28.89
2023-01-18T14:31:26.093Z,28.82
2023-01-18T14:32:26.068Z,28.77
2023-01-18T14:33:26.056Z,28.76
2023-01-18T14:34:26.525Z,28.70
2023-01-18T14:35:26.342Z,28.70
2023-01-18T14:36:26.044Z,28.67
2023-01-18T14:37:26.018Z,28.61
2023-01-18T14:38:26.030Z,28.58
2023-01-18T14:39:26.036Z,28.55
2023-01-18T14:40:26.329Z,28.50
2023-01-18T14:41:25.975Z,28.50
2023-01-18T14:42:26.309Z,28.46
2023-01-18T14:43:25.959Z,28.48
2023-01-18T14:44:25.979Z,28.44
2023-01-18T14:45:25.933Z,28.38
2023-01-18T14:46:26.022Z,28.44
2023-01-18T14:47:26.316Z,28.36
2023-01-18T14:48:25.907Z,28.28
2023-01-18T14:49:25.991Z,28.26
2023-01-18T14:50:25.911Z,28.29
2023-01-18T14:51:25.886Z,28.25
2023-01-18T14:52:25.876Z,28.24
2023-01-18T14:53:25.867Z,28.20
2023-01-18T14:54:25.990Z,28.18
2023-01-18T14:55:25.862Z,28.07
2023-01-18T14:56:25.867Z,28.14
2023-01-18T14:57:25.835Z,28.10
2023-01-18T14:58:25.830Z,28.05
2023-01-18T14:59:25.820Z,28.03
2023-01-18T15:00:25.840Z,28.08
2023-01-18T15:01:25.966Z,28.01
2023-01-18T15:02:26.017Z,28.01
2023-01-18T15:03:25.784Z,27.95
2023-01-18T15:04:25.775Z,28.00
2023-01-18T15:05:25.768Z,27.96
2023-01-18T15:06:25.749Z,27.94
2023-01-18T15:07:25.815Z,27.92
2023-01-18T15:08:25.736Z,27.89
2023-01-18T15:09:28.074Z,27.86
2023-01-18T15:10:25.746Z,27.87
2023-01-18T15:11:25.709Z,27.83
2023-01-18T15:12:25.704Z,27.80
2023-01-18T15:13:25.695Z,27.80
2023-01-18T15:14:25.690Z,27.78
2023-01-18T15:15:25.676Z,27.75
2023-01-18T15:16:25.741Z,27.71
2023-01-18T15:17:25.655Z,27.69
2023-01-18T15:18:25.676Z,27.71
2023-01-18T15:19:25.643Z,27.69
2023-01-18T15:20:25.712Z,27.65
2023-01-18T15:21:25.620Z,27.65
2023-01-18T15:22:25.607Z,27.62
2023-01-18T15:23:25.600Z,27.59
2023-01-18T15:24:25.602Z,27.63
2023-01-18T15:25:25.598Z,27.55
2023-01-18T15:26:25.582Z,27.55
2023-01-18T15:27:25.573Z,27.51
2023-01-18T15:28:25.553Z,27.54
2023-01-18T15:29:26.419Z,27.49
2023-01-18T15:30:25.569Z,27.42
2023-01-18T15:31:25.591Z,27.44
2023-01-18T15:32:25.531Z,27.42
2023-01-18T15:33:25.532Z,27.42
2023-01-18T15:34:25.569Z,27.43
2023-01-18T15:35:25.537Z,27.42
2023-01-18T15:36:25.490Z,27.41
2023-01-18T15:37:25.484Z,27.36
2023-01-18T15:38:25.468Z,27.34
2023-01-18T15:39:25.496Z,27.31
2023-01-18T15:40:25.489Z,27.30
2023-01-18T15:41:25.472Z,27.30
2023-01-18T15:42:25.447Z,27.27
2023-01-18T15:43:25.450Z,27.27
2023-01-18T15:44:25.415Z,27.28
2023-01-18T15:45:25.442Z,27.23
2023-01-18T15:46:25.405Z,27.26
2023-01-18T15:47:25.400Z,27.28
2023-01-18T15:48:25.396Z,27.19
2023-01-18T15:49:25.376Z,27.23
2023-01-18T15:50:25.489Z,27.18
2023-01-18T15:51:25.357Z,27.18
2023-01-18T15:52:25.351Z,27.18
2023-01-18T15:53:25.834Z,27.17
2023-01-18T15:54:25.331Z,27.12
2023-01-18T15:55:25.323Z,27.12
2023-01-18T15:56:25.315Z,27.14
2023-01-18T15:57:25.301Z,27.12
2023-01-18T15:58:25.296Z,27.11
2023-01-18T15:59:25.382Z,27.09
2023-01-18T16:00:25.275Z,27.03
2023-01-18T16:01:25.384Z,27.07
2023-01-18T16:02:25.321Z,27.01
2023-01-18T16:03:25.256Z,27.06
2023-01-18T16:04:25.257Z,26.96
2023-01-18T16:05:25.231Z,27.01
2023-01-18T16:06:25.322Z,26.99
2023-01-18T16:07:25.220Z,27.03
2023-01-18T16:08:25.326Z,26.95
2023-01-18T16:09:25.202Z,26.96
2023-01-18T16:10:25.188Z,26.92
2023-01-18T16:11:25.184Z,26.94
2023-01-18T16:12:25.171Z,26.95
2023-01-18T16:13:25.164Z,26.94
2023-01-18T16:14:25.157Z,26.90
2023-01-18T16:15:25.157Z,26.88
2023-01-18T16:16:25.146Z,26.91
2023-01-18T16:17:25.127Z,26.90
2023-01-18T16:18:25.120Z,26.86
2023-01-18T16:19:25.110Z,26.83
2023-01-18T16:20:25.100Z,26.90
2023-01-18T16:21:25.103Z,26.84
2023-01-18T16:22:25.105Z,26.85
2023-01-18T16:23:25.071Z,26.80
2023-01-18T16:24:25.066Z,26.86
2023-01-18T16:25:25.068Z,26.80
2023-01-18T16:26:25.840Z,26.75
2023-01-18T16:27:25.041Z,26.79
2023-01-18T16:28:25.028Z,26.83
2023-01-18T16:29:25.030Z,26.80
2023-01-18T16:30:25.013Z,26.76
2023-01-18T16:31:25.793Z,26.79
2023-01-18T16:32:25.013Z,26.72
2023-01-18T16:33:24.985Z,26.72
2023-01-18T16:34:25.105Z,26.70
2023-01-18T16:35:24.965Z,26.67
2023-01-18T16:36:27.594Z,26.72
2023-01-18T16:37:25.172Z,26.69
2023-01-18T16:38:25.231Z,26.68
2023-01-18T16:39:25.348Z,26.67
2023-01-18T16:40:25.121Z,26.63
2023-01-18T16:41:25.113Z,26.68
2023-01-18T16:42:37.009Z,26.64
2023-01-18T16:43:25.091Z,26.62
2023-01-18T16:44:25.084Z,26.60
2023-01-18T16:45:25.078Z,26.61
2023-01-18T16:46:25.067Z,26.60
2023-01-18T16:47:25.064Z,26.59
2023-01-18T16:48:25.067Z,26.59
2023-01-18T16:49:25.042Z,26.56
2023-01-18T16:50:25.030Z,26.51
2023-01-18T16:51:25.021Z,26.54
2023-01-18T16:52:25.021Z,26.56
2023-01-18T16:53:25.008Z,26.52
2023-01-18T16:54:25.027Z,26.52
2023-01-18T16:55:24.992Z,26.47
2023-01-18T16:56:24.979Z,26.51
2023-01-18T16:57:24.978Z,26.47
2023-01-18T16:58:24.961Z,26.47
2023-01-18T16:59:24.955Z,26.48
2023-01-18T17:00:24.943Z,26.47
2023-01-18T17:01:25.087Z,26.41
2023-01-18T17:02:25.024Z,26.43
2023-01-18T17:03:24.920Z,26.46
2023-01-18T17:04:24.905Z,26.37
2023-01-18T17:05:24.902Z,26.40
2023-01-18T17:06:24.887Z,26.41
2023-01-18T17:07:24.880Z,26.41
2023-01-18T17:08:24.882Z,26.39
2023-01-18T17:09:24.873Z,26.40
2023-01-18T17:10:24.880Z,26.41
2023-01-18T17:11:24.848Z,26.38
2023-01-18T17:12:24.844Z,26.37
2023-01-18T17:13:24.825Z,26.34
2023-01-18T17:14:24.820Z,26.36
2023-01-18T17:15:24.811Z,26.32
2023-01-18T17:16:24.834Z,26.31
2023-01-18T17:17:24.802Z,26.32
2023-01-18T17:18:24.783Z,26.32
2023-01-18T17:19:24.779Z,26.29
2023-01-18T17:20:24.764Z,26.28
2023-01-18T17:21:24.756Z,26.20
2023-01-18T17:22:24.746Z,26.28
2023-01-18T17:23:24.740Z,26.25
2023-01-18T17:24:24.739Z,26.18
2023-01-18T17:25:24.728Z,26.23
2023-01-18T17:26:24.739Z,26.23
2023-01-18T17:27:24.712Z,26.25
2023-01-18T17:28:24.703Z,26.16